createdAt,value
2018-08-13T00:01:24.563Z,97641.41
2018-08-13T00:03:54.319Z,97638.41
2018-08-13T00:06:24.077Z,97639.59
2018-08-13T00:08:53.689Z,97637.12
2018-08-13T00:11:23.309Z,97632.98
2018-08-13T00:13:53.347Z,97627.04
2018-08-13T00:16:23.422Z,97628.53
2018-08-13T00:18:52.965Z,97622.25
2018-08-13T00:21:23.195Z,97616.81
2018-08-13T00:23:53.486Z,97622.73
2018-08-13T00:26:23.091Z,97610.53
2018-08-13T00:28:52.800Z,97609.88
2018-08-13T00:31:22.727Z,97614.34
2018-08-13T00:33:52.467Z,97615.98
2018-08-13T00:36:22.238Z,97609.37
2018-08-13T00:38:51.846Z,97611.20
2018-08-13T00:41:22.223Z,97603.26
2018-08-13T00:43:52.103Z,97612.00
2018-08-13T00:46:22.114Z,97605.88
2018-08-13T00:48:52.150Z,97601.27
2018-08-13T00:51:22.142Z,97599.63
2018-08-13T00:53:52.259Z,97599.58
2018-08-13T00:56:21.962Z,97597.58
2018-08-13T00:58:52.096Z,97598.91
2018-08-13T01:01:21.627Z,97593.45
2018-08-13T01:03:51.349Z,97590.30
2018-08-13T01:06:21.142Z,97587.19
2018-08-13T01:08:51.211Z,97591.15
2018-08-13T01:11:20.900Z,97591.45
2018-08-13T01:13:50.610Z,97592.47
2018-08-13T01:16:20.368Z,97589.67
2018-08-13T01:18:50.411Z,97585.02
2018-08-13T01:21:20.476Z,97587.67
2018-08-13T01:23:50.107Z,97583.38
2018-08-13T01:26:20.135Z,97580.39
2018-08-13T01:28:49.814Z,97577.10
2018-08-13T01:31:19.448Z,97576.61
2018-08-13T01:33:49.452Z,97577.75
2018-08-13T01:36:19.883Z,97571.31
2018-08-13T01:38:49.479Z,97581.22
2018-08-13T01:41:19.377Z,97574.12
2018-08-13T01:43:49.615Z,97575.91
2018-08-13T01:46:19.708Z,97573.76
2018-08-13T01:48:49.630Z,97576.72
2018-08-13T01:51:19.295Z,97570.60
2018-08-13T01:53:48.954Z,97571.43
2018-08-13T01:56:19.023Z,97576.52
2018-08-13T01:58:48.804Z,97578.32
2018-08-13T02:01:18.583Z,97577.83
2018-08-13T02:03:48.836Z,97577.33
2018-08-13T02:06:18.627Z,97571.55
2018-08-13T02:08:48.670Z,97579.78
2018-08-13T02:11:18.806Z,97578.62
2018-08-13T02:13:48.370Z,97573.51
2018-08-13T02:16:18.267Z,97578.75
2018-08-13T02:18:47.890Z,97573.95
2018-08-13T02:21:17.924Z,97567.02
2018-08-13T02:23:47.522Z,97560.75
2018-08-13T02:26:17.143Z,97565.20
2018-08-13T02:28:46.869Z,97564.39
2018-08-13T02:31:16.851Z,97574.24
2018-08-13T02:33:46.992Z,97572.08
2018-08-13T02:36:16.782Z,97579.02
2018-08-13T02:38:46.566Z,97575.22
2018-08-13T02:41:16.475Z,97579.17
2018-08-13T02:43:46.107Z,97578.48
2018-08-13T02:46:15.895Z,97562.83
2018-08-13T02:48:45.758Z,97559.34
2018-08-13T02:51:15.431Z,97555.73
2018-08-13T02:53:45.467Z,97559.84
2018-08-13T02:56:15.259Z,97551.41
2018-08-13T02:58:44.888Z,97546.80
2018-08-13T03:01:14.521Z,97545.80
2018-08-13T03:03:44.419Z,97546.92
2018-08-13T03:06:13.984Z,97540.80
2018-08-13T03:08:44.202Z,97547.23
2018-08-13T03:11:14.635Z,97544.75
2018-08-13T03:13:44.347Z,97555.61
2018-08-13T03:16:14.299Z,97552.13
2018-08-13T03:18:44.343Z,97548.45
2018-08-13T03:21:14.120Z,97550.58
2018-08-13T03:23:43.903Z,97561.61
2018-08-13T03:26:13.483Z,97561.08
2018-08-13T03:28:43.228Z,97568.51
2018-08-13T03:31:13.167Z,97562.73
2018-08-13T03:33:43.408Z,97563.55
2018-08-13T03:36:12.999Z,97560.92
2018-08-13T03:38:42.791Z,97552.67
2018-08-13T03:41:12.799Z,97551.62
2018-08-13T03:43:42.433Z,97553.09
2018-08-13T03:46:12.152Z,97553.55
2018-08-13T03:48:41.726Z,97553.05
2018-08-13T03:51:12.156Z,97547.13
2018-08-13T03:53:41.873Z,97539.23
2018-08-13T03:56:11.868Z,97541.09
2018-08-13T03:58:41.511Z,97532.34
2018-08-13T04:01:11.386Z,97530.91
2018-08-13T04:03:41.507Z,97526.91
2018-08-13T04:06:11.252Z,97533.34
2018-08-13T04:08:41.079Z,97521.02
2018-08-13T04:11:10.863Z,97527.11
2018-08-13T04:13:40.997Z,97514.76
2018-08-13T04:16:10.962Z,97514.59
2018-08-13T04:18:40.631Z,97502.44
2018-08-13T04:21:10.578Z,97497.64
2018-08-13T04:23:40.940Z,97499.80
2018-08-13T04:26:10.923Z,97493.87
2018-08-13T04:28:40.759Z,97494.22
2018-08-13T04:31:10.558Z,97483.84
2018-08-13T04:33:40.195Z,97483.22
2018-08-13T04:36:09.858Z,97481.91
2018-08-13T04:38:39.923Z,97488.95
2018-08-13T04:41:09.888Z,97486.36
2018-08-13T04:43:39.606Z,97479.96
2018-08-13T04:46:09.805Z,97480.94
2018-08-13T04:48:39.574Z,97478.64
2018-08-13T04:51:09.897Z,97478.30
2018-08-13T04:53:39.531Z,97477.52
2018-08-13T04:56:09.295Z,97482.47
2018-08-13T04:58:39.139Z,97477.54
2018-08-13T05:01:09.240Z,97479.55
2018-08-13T05:03:39.340Z,97480.55
2018-08-13T05:06:09.454Z,97479.09
2018-08-13T05:08:39.175Z,97485.20
2018-08-13T05:11:08.791Z,97480.44
2018-08-13T05:13:38.373Z,97485.05
2018-08-13T05:16:07.965Z,97480.93
2018-08-13T05:18:37.580Z,97479.19
2018-08-13T05:21:07.982Z,97483.49
2018-08-13T05:23:37.529Z,97487.66
2018-08-13T05:26:07.998Z,97488.64
2018-08-13T05:28:37.790Z,97488.55
2018-08-13T05:31:07.594Z,97492.33
2018-08-13T05:33:37.270Z,97490.58
2018-08-13T05:36:07.512Z,97491.58
2018-08-13T05:38:37.720Z,97491.83
2018-08-13T05:41:07.447Z,97504.89
2018-08-13T05:43:37.164Z,97501.84
2018-08-13T05:46:07.092Z,97512.59
2018-08-13T05:48:37.200Z,97512.58
2018-08-13T05:51:07.282Z,97514.14
2018-08-13T05:53:36.913Z,97510.56
2018-08-13T05:56:06.730Z,97509.39
2018-08-13T05:58:36.548Z,97507.52
2018-08-13T06:01:06.366Z,97507.38
2018-08-13T06:03:36.160Z,97511.25
2018-08-13T06:06:06.269Z,97515.81
2018-08-13T06:08:36.035Z,97517.52
2018-08-13T06:11:05.702Z,97520.51
2018-08-13T06:13:35.744Z,97518.32
2018-08-13T06:16:05.430Z,97514.55
2018-08-13T06:18:35.035Z,97512.32
2018-08-13T06:21:05.431Z,97514.94
2018-08-13T06:23:36.930Z,97513.95
2018-08-13T06:26:06.903Z,97517.23
2018-08-13T06:28:36.731Z,97525.94
2018-08-13T06:31:06.442Z,97535.06
2018-08-13T06:33:36.167Z,97533.45
2018-08-13T06:36:06.407Z,97542.92
2018-08-13T06:38:36.378Z,97555.55
2018-08-13T06:41:06.335Z,97567.48
2018-08-13T06:43:36.171Z,97574.89
2018-08-13T06:46:06.224Z,97573.09
2018-08-13T06:48:36.055Z,97562.84
2018-08-13T06:51:05.781Z,97565.41
2018-08-13T06:53:37.982Z,97567.91
2018-08-13T06:56:07.659Z,97570.23
2018-08-13T06:58:37.854Z,97577.17
2018-08-13T07:01:07.659Z,97587.50
2018-08-13T07:03:37.417Z,97586.76
2018-08-13T07:06:07.495Z,97585.83
2018-08-13T07:08:37.635Z,97589.95
2018-08-13T07:11:07.214Z,97587.62
2018-08-13T07:13:36.923Z,97597.36
2018-08-13T07:16:06.559Z,97601.03
2018-08-13T07:18:36.135Z,97623.08
2018-08-13T07:21:05.978Z,97625.14
2018-08-13T07:23:35.478Z,97650.14
2018-08-13T07:26:05.462Z,97661.80
2018-08-13T07:28:35.071Z,97665.22
2018-08-13T07:31:04.656Z,97677.70
2018-08-13T07:33:34.267Z,97676.08
2018-08-13T07:36:04.225Z,97680.55
2018-08-13T07:38:34.030Z,97679.13
2018-08-13T07:41:03.607Z,97686.03
2018-08-13T07:43:33.582Z,97695.59
2018-08-13T07:46:03.453Z,97693.53
2018-08-13T07:48:33.607Z,97704.39
2018-08-13T07:51:03.114Z,97702.05
2018-08-13T07:53:33.061Z,97702.38
2018-08-13T07:56:03.035Z,97698.80
2018-08-13T07:58:32.610Z,97698.05
2018-08-13T08:01:02.223Z,97698.75
2018-08-13T08:03:32.517Z,97696.14
2018-08-13T08:06:02.143Z,97698.42
2018-08-13T08:08:31.714Z,97701.98
2018-08-13T08:11:01.284Z,97697.92
2018-08-13T08:13:30.851Z,97707.77
2018-08-13T08:16:00.818Z,97706.03
2018-08-13T08:18:31.020Z,97702.92
2018-08-13T08:21:00.852Z,97690.05
2018-08-13T08:23:30.695Z,97688.83
2018-08-13T08:26:00.225Z,97688.71
2018-08-13T08:28:30.196Z,97681.57
2018-08-13T08:31:00.061Z,97678.34
2018-08-13T08:33:30.542Z,97676.20
2018-08-13T08:36:00.055Z,97676.86
2018-08-13T08:38:29.983Z,97686.74
2018-08-13T08:40:59.886Z,97685.20
2018-08-13T08:43:30.105Z,97686.41
2018-08-13T08:46:00.346Z,97680.26
2018-08-13T08:48:30.423Z,97710.52
2018-08-13T08:50:59.970Z,97710.41
2018-08-13T08:53:29.619Z,97701.00
2018-08-13T08:55:59.604Z,97705.94
2018-08-13T08:58:29.107Z,97693.08
2018-08-13T09:00:58.906Z,97698.53
2018-08-13T09:03:28.479Z,97703.16
2018-08-13T09:05:58.461Z,97715.49
2018-08-13T09:08:28.530Z,97707.70
2018-08-13T09:10:58.167Z,97707.19
2018-08-13T09:13:27.891Z,97717.13
2018-08-13T09:15:57.834Z,97715.66
2018-08-13T09:18:44.307Z,97716.92
2018-08-13T09:21:30.003Z,97713.14
2018-08-13T09:24:17.206Z,97716.67
2018-08-13T09:27:03.593Z,97728.05
2018-08-13T09:29:50.199Z,97747.63
2018-08-13T09:32:36.767Z,97760.12
2018-08-13T09:35:21.602Z,97758.61
2018-08-13T09:37:51.779Z,97750.17
2018-08-13T09:40:21.514Z,97759.20
2018-08-13T09:42:51.433Z,97764.66
2018-08-13T09:45:21.871Z,97767.16
2018-08-13T09:47:51.663Z,97766.55
2018-08-13T09:50:21.923Z,97766.61
2018-08-13T09:52:52.162Z,97768.66
2018-08-13T09:55:21.940Z,97775.75
2018-08-13T09:57:52.283Z,97781.44
2018-08-13T10:00:27.631Z,97778.62
2018-08-13T10:02:57.393Z,97780.21
2018-08-13T10:05:27.943Z,97778.68
2018-08-13T10:07:58.224Z,97778.28
2018-08-13T10:10:28.523Z,97780.36
2018-08-13T10:12:58.495Z,97775.24
2018-08-13T10:15:28.310Z,97770.52
2018-08-13T10:17:58.036Z,97773.78
2018-08-13T10:20:27.906Z,97774.18
2018-08-13T10:22:57.623Z,97776.72
2018-08-13T10:25:27.659Z,97780.75
2018-08-13T10:27:58.051Z,97769.52
2018-08-13T10:30:27.827Z,97766.85
2018-08-13T10:32:57.812Z,97774.86
2018-08-13T10:35:27.419Z,97766.54
2018-08-13T10:37:57.194Z,97762.19
2018-08-13T10:40:27.015Z,97762.18
2018-08-13T10:42:56.919Z,97765.40
2018-08-13T10:45:26.645Z,97759.91
2018-08-13T10:47:56.426Z,97756.91
2018-08-13T10:50:26.587Z,97752.95
2018-08-13T10:52:56.254Z,97762.23
2018-08-13T10:55:26.016Z,97761.06
2018-08-13T10:57:55.845Z,97756.90
2018-08-13T11:00:25.707Z,97760.31
2018-08-13T11:02:55.567Z,97760.73
2018-08-13T11:05:25.465Z,97766.06
2018-08-13T11:07:55.202Z,97761.05
2018-08-13T11:10:25.568Z,97761.84
2018-08-13T11:12:55.402Z,97758.42
2018-08-13T11:15:25.602Z,97750.66
2018-08-13T11:17:55.223Z,97753.52
2018-08-13T11:20:25.326Z,97757.97
2018-08-13T11:22:55.182Z,97750.98
2018-08-13T11:25:25.232Z,97748.34
2018-08-13T11:27:55.178Z,97734.94
2018-08-13T11:30:25.007Z,97729.09
2018-08-13T11:32:55.072Z,97725.61
2018-08-13T11:35:25.267Z,97717.06
2018-08-13T11:37:55.303Z,97711.41
2018-08-13T11:40:24.959Z,97706.86
2018-08-13T11:42:54.992Z,97690.13
2018-08-13T11:45:24.655Z,97699.05
2018-08-13T11:47:54.657Z,97705.19
2018-08-13T11:50:24.467Z,97706.13
2018-08-13T11:52:54.203Z,97702.84
2018-08-13T11:55:23.991Z,97704.30
2018-08-13T11:57:53.654Z,97700.72
2018-08-13T12:00:23.319Z,97685.13
2018-08-13T12:02:53.398Z,97673.79
2018-08-13T12:05:23.082Z,97666.44
2018-08-13T12:07:53.238Z,97676.93
2018-08-13T12:10:23.284Z,97684.55
2018-08-13T12:12:52.961Z,97686.01
2018-08-13T12:15:23.095Z,97678.30
2018-08-13T12:17:53.266Z,97675.44
2018-08-13T12:20:23.081Z,97669.70
2018-08-13T12:22:53.131Z,97675.56
2018-08-13T12:25:25.510Z,97672.38
2018-08-13T12:27:55.724Z,97667.02
2018-08-13T12:30:25.689Z,97663.81
2018-08-13T12:32:55.749Z,97647.75
2018-08-13T12:35:25.727Z,97645.62
2018-08-13T12:37:55.507Z,97655.48
2018-08-13T12:40:25.148Z,97650.85
2018-08-13T12:42:54.925Z,97652.94
2018-08-13T12:45:24.875Z,97646.99
2018-08-13T12:47:54.559Z,97640.52
2018-08-13T12:50:24.605Z,97639.71
2018-08-13T12:52:54.572Z,97642.79
2018-08-13T12:55:24.339Z,97623.70
2018-08-13T12:57:54.123Z,97622.48
2018-08-13T13:00:23.940Z,97633.28
2018-08-13T13:02:53.664Z,97632.14
2018-08-13T13:05:23.350Z,97642.82
2018-08-13T13:07:53.199Z,97643.19
2018-08-13T13:10:22.974Z,97657.53
2018-08-13T13:12:52.754Z,97645.93
2018-08-13T13:15:22.511Z,97647.86
2018-08-13T13:17:52.205Z,97646.81
2018-08-13T13:20:23.340Z,97640.82
2018-08-13T13:22:53.486Z,97641.52
2018-08-13T13:25:23.306Z,97643.03
2018-08-13T13:27:53.181Z,97647.95
2018-08-13T13:30:22.807Z,97637.87
2018-08-13T13:32:52.536Z,97639.28
2018-08-13T13:35:22.950Z,97633.95
2018-08-13T13:37:52.639Z,97632.13
2018-08-13T13:40:22.729Z,97628.55
2018-08-13T13:42:52.454Z,97627.75
2018-08-13T13:45:22.041Z,97635.09
2018-08-13T13:47:51.576Z,97634.77
2018-08-13T13:50:21.166Z,97630.41
2018-08-13T13:52:50.703Z,97631.58
2018-08-13T13:55:20.263Z,97628.38
2018-08-13T13:57:50.071Z,97626.69
2018-08-13T14:00:21.249Z,97618.58
2018-08-13T14:02:52.227Z,97617.41
2018-08-13T14:05:22.450Z,97621.03
2018-08-13T14:07:52.019Z,97618.16
2018-08-13T14:10:22.871Z,97610.06
2018-08-13T14:12:52.683Z,97604.80
2018-08-13T14:15:23.304Z,97603.27
2018-08-13T14:17:53.187Z,97601.31
2018-08-13T14:20:22.902Z,97608.28
2018-08-13T14:22:52.703Z,97605.86
2018-08-13T14:25:22.347Z,97602.88
2018-08-13T14:27:52.132Z,97605.93
2018-08-13T14:30:26.385Z,97589.56
2018-08-13T14:32:56.114Z,97580.61
2018-08-13T14:35:26.147Z,97587.61
2018-08-13T14:37:55.811Z,97586.97
2018-08-13T14:40:25.934Z,97586.69
2018-08-13T14:42:56.399Z,97582.36
2018-08-13T14:45:26.359Z,97580.78
2018-08-13T14:47:56.479Z,97582.08
2018-08-13T14:50:26.094Z,97582.67
2018-08-13T14:52:55.758Z,97588.12
2018-08-13T14:55:25.420Z,97576.52
2018-08-13T14:57:55.703Z,97583.41
2018-08-13T15:00:32.357Z,97584.03
2018-08-13T15:03:02.139Z,97576.97
2018-08-13T15:05:31.776Z,97578.92
2018-08-13T15:08:01.628Z,97580.08
2018-08-13T15:10:31.456Z,97577.73
2018-08-13T15:13:01.308Z,97571.38
2018-08-13T15:15:31.512Z,97563.38
2018-08-13T15:18:01.304Z,97567.69
2018-08-13T15:20:32.296Z,97567.50
2018-08-13T15:23:01.894Z,97570.75
2018-08-13T15:25:31.668Z,97572.38
2018-08-13T15:28:01.519Z,97567.55
2018-08-13T15:30:31.363Z,97566.92
2018-08-13T15:33:01.506Z,97564.05
2018-08-13T15:35:32.273Z,97562.19
2018-08-13T15:38:01.939Z,97565.44
2018-08-13T15:40:31.951Z,97558.73
2018-08-13T15:43:02.311Z,97564.50
2018-08-13T15:45:32.283Z,97551.52
2018-08-13T15:48:02.207Z,97558.55
2018-08-13T15:50:32.012Z,97559.25
2018-08-13T15:53:01.759Z,97556.44
2018-08-13T15:55:31.435Z,97545.33
2018-08-13T15:58:01.312Z,97551.87
2018-08-13T16:00:30.964Z,97548.59
2018-08-13T16:03:00.574Z,97547.89
2018-08-13T16:05:30.353Z,97543.78
2018-08-13T16:08:00.490Z,97546.98
2018-08-13T16:10:30.423Z,97547.09
2018-08-13T16:13:00.546Z,97547.02
2018-08-13T16:15:30.667Z,97540.05
2018-08-13T16:18:00.501Z,97539.84
2018-08-13T16:20:30.260Z,97534.42
2018-08-13T16:22:59.879Z,97537.59
2018-08-13T16:25:29.695Z,97535.66
2018-08-13T16:27:59.511Z,97528.88
2018-08-13T16:30:31.726Z,97531.16
2018-08-13T16:33:01.516Z,97521.91
2018-08-13T16:35:31.298Z,97513.32
2018-08-13T16:38:01.394Z,97513.45
2018-08-13T16:40:31.408Z,97503.70
2018-08-13T16:43:01.532Z,97504.44
2018-08-13T16:45:31.262Z,97501.23
2018-08-13T16:48:00.979Z,97494.28
2018-08-13T16:50:33.275Z,97493.97
2018-08-13T16:53:03.379Z,97494.91
2018-08-13T16:55:33.985Z,97505.65
2018-08-13T16:58:04.384Z,97508.94
2018-08-13T17:00:34.680Z,97512.23
2018-08-13T17:03:04.880Z,97512.84
2018-08-13T17:05:35.546Z,97528.15
2018-08-13T17:08:05.503Z,97525.28
2018-08-13T17:10:35.411Z,97520.05
2018-08-13T17:13:05.328Z,97525.50
2018-08-13T17:15:35.210Z,97535.95
2018-08-13T17:18:05.616Z,97539.03
2018-08-13T17:20:39.589Z,97541.59
2018-08-13T17:23:09.528Z,97543.65
2018-08-13T17:25:39.664Z,97545.44
2018-08-13T17:28:09.769Z,97543.70
2018-08-13T17:30:39.995Z,97544.50
2018-08-13T17:33:09.891Z,97542.13
2018-08-13T17:35:39.617Z,97534.56
2018-08-13T17:38:11.171Z,97525.64
2018-08-13T17:40:40.936Z,97542.16
2018-08-13T17:43:12.093Z,97548.42
2018-08-13T17:45:41.771Z,97544.59
2018-08-13T17:48:12.114Z,97552.86
2018-08-13T17:50:42.011Z,97548.64
2018-08-13T17:53:12.221Z,97555.05
2018-08-13T17:55:41.816Z,97560.17
2018-08-13T17:58:11.772Z,97559.23
2018-08-13T18:00:41.576Z,97555.96
2018-08-13T18:03:11.325Z,97557.81
2018-08-13T18:05:41.278Z,97556.03
2018-08-13T18:08:11.340Z,97567.93
2018-08-13T18:10:41.933Z,97567.55
2018-08-13T18:13:11.917Z,97555.97
2018-08-13T18:15:41.658Z,97560.95
2018-08-13T18:18:11.619Z,97555.27
2018-08-13T18:20:43.455Z,97555.86
2018-08-13T18:23:13.459Z,97564.25
2018-08-13T18:25:44.004Z,97573.44
2018-08-13T18:28:13.736Z,97577.01
2018-08-13T18:30:43.504Z,97576.78
2018-08-13T18:33:13.260Z,97577.98
2018-08-13T18:35:42.975Z,97579.70
2018-08-13T18:38:13.358Z,97589.41
2018-08-13T18:40:43.210Z,97595.31
2018-08-13T18:43:13.577Z,97594.56
2018-08-13T18:45:43.723Z,97593.63
2018-08-13T18:48:13.269Z,97603.94
2018-08-13T18:50:43.246Z,97603.70
2018-08-13T18:53:13.167Z,97601.63
2018-08-13T18:55:42.862Z,97604.64
2018-08-13T18:58:12.544Z,97607.20
2018-08-13T19:00:42.885Z,97611.87
2018-08-13T19:03:12.971Z,97614.91
2018-08-13T19:05:42.783Z,97619.61
2018-08-13T19:08:12.678Z,97625.83
2018-08-13T19:10:42.639Z,97624.13
2018-08-13T19:13:12.266Z,97632.86
2018-08-13T19:15:42.205Z,97639.31
2018-08-13T19:18:12.052Z,97637.04
2018-08-13T19:20:41.999Z,97651.23
2018-08-13T19:23:11.585Z,97642.30
2018-08-13T19:25:41.915Z,97638.87
2018-08-13T19:28:12.019Z,97640.44
2018-08-13T19:30:41.771Z,97642.19
2018-08-13T19:33:11.587Z,97640.98
2018-08-13T19:35:41.528Z,97651.19
2018-08-13T19:38:11.197Z,97654.78
2018-08-13T19:40:41.482Z,97656.73
2018-08-13T19:43:11.368Z,97651.98
2018-08-13T19:45:41.175Z,97653.97
2018-08-13T19:48:10.958Z,97651.06
2018-08-13T19:50:40.679Z,97650.91
2018-08-13T19:53:10.514Z,97654.64
2018-08-13T19:55:41.074Z,97658.21
2018-08-13T19:58:11.263Z,97653.78
2018-08-13T20:00:41.006Z,97655.84
2018-08-13T20:03:14.498Z,97654.25
2018-08-13T20:05:44.131Z,97653.50
2018-08-13T20:08:13.867Z,97655.02
2018-08-13T20:10:44.092Z,97651.91
2018-08-13T20:13:13.980Z,97658.84
2018-08-13T20:15:44.187Z,97659.03
2018-08-13T20:18:14.331Z,97660.02
2018-08-13T20:20:44.417Z,97646.94
2018-08-13T20:23:14.466Z,97650.58
2018-08-13T20:25:44.254Z,97647.11
2018-08-13T20:28:14.189Z,97651.09
2018-08-13T20:30:43.877Z,97652.42
2018-08-13T20:33:14.167Z,97656.07
2018-08-13T20:35:43.827Z,97659.75
2018-08-13T20:38:13.650Z,97665.36
2018-08-13T20:40:44.142Z,97662.59
2018-08-13T20:43:13.760Z,97669.89
2018-08-13T20:45:43.309Z,97676.22
2018-08-13T20:48:13.042Z,97681.89
2018-08-13T20:50:42.938Z,97683.58
2018-08-13T20:53:12.533Z,97681.12
2018-08-13T20:55:42.338Z,97679.53
2018-08-13T20:58:12.492Z,97679.70
2018-08-13T21:00:42.408Z,97685.55
2018-08-13T21:03:12.476Z,97681.08
2018-08-13T21:05:42.070Z,97680.96
2018-08-13T21:08:11.687Z,97682.31
2018-08-13T21:10:41.605Z,97683.18
2018-08-13T21:13:11.167Z,97689.66
2018-08-13T21:15:41.104Z,97687.52
2018-08-13T21:18:10.783Z,97698.63
2018-08-13T21:20:40.352Z,97698.63
2018-08-13T21:23:09.948Z,97698.45
2018-08-13T21:25:39.903Z,97702.26
2018-08-13T21:28:09.644Z,97700.94
2018-08-13T21:30:39.201Z,97700.95
2018-08-13T21:33:09.068Z,97704.42
2018-08-13T21:35:38.894Z,97702.13
2018-08-13T21:38:08.530Z,97707.94
2018-08-13T21:40:38.080Z,97708.93
2018-08-13T21:43:07.984Z,97714.41
2018-08-13T21:45:37.531Z,97716.25
2018-08-13T21:48:08.192Z,97720.23
2018-08-13T21:50:37.739Z,97712.98
2018-08-13T21:53:07.731Z,97712.16
2018-08-13T21:55:37.464Z,97712.34
2018-08-13T21:58:07.498Z,97711.37
2018-08-13T22:00:42.086Z,97710.34
2018-08-13T22:03:11.927Z,97715.17
2018-08-13T22:05:41.536Z,97724.27
2018-08-13T22:08:11.127Z,97722.96
2018-08-13T22:10:40.664Z,97737.55
2018-08-13T22:13:10.347Z,97732.94
2018-08-13T22:15:39.895Z,97734.56
2018-08-13T22:18:10.101Z,97743.36
2018-08-13T22:20:39.974Z,97736.22
2018-08-13T22:23:09.910Z,97742.21
2018-08-13T22:25:44.856Z,97741.54
2018-08-13T22:28:16.792Z,97739.23
2018-08-13T22:30:46.774Z,97747.88
2018-08-13T22:33:16.359Z,97747.89
2018-08-13T22:35:45.926Z,97741.44
2018-08-13T22:38:15.486Z,97740.64
2018-08-13T22:40:45.071Z,97745.27
2018-08-13T22:43:14.647Z,97752.06
2018-08-13T22:45:44.187Z,97749.94
2018-08-13T22:48:13.726Z,97751.30
2018-08-13T22:50:43.380Z,97753.79
2018-08-13T22:53:12.936Z,97751.32
2018-08-13T22:55:42.487Z,97753.67
2018-08-13T22:58:12.022Z,97760.00
2018-08-13T23:00:41.996Z,97757.02
2018-08-13T23:03:11.707Z,97757.70
2018-08-13T23:05:41.275Z,97764.02
2018-08-13T23:08:11.403Z,97765.01
2018-08-13T23:10:41.462Z,97774.45
2018-08-13T23:13:17.520Z,97767.52
2018-08-13T23:15:47.193Z,97774.48
2018-08-13T23:18:16.737Z,97775.47
2018-08-13T23:20:46.347Z,97774.83
2018-08-13T23:23:15.912Z,97778.80
2018-08-13T23:25:45.482Z,97787.25
2018-08-13T23:28:15.058Z,97790.58
2018-08-13T23:30:44.623Z,97787.25
2018-08-13T23:33:14.184Z,97793.39
2018-08-13T23:35:43.731Z,97793.70
2018-08-13T23:38:13.647Z,97798.19
2018-08-13T23:40:43.207Z,97798.86
2018-08-13T23:43:13.096Z,97794.38
2018-08-13T23:45:43.227Z,97799.33
2018-08-13T23:48:13.091Z,97796.20
2018-08-13T23:50:42.980Z,97802.83
2018-08-13T23:53:13.170Z,97801.84
2018-08-13T23:55:43.044Z,97796.70
2018-08-13T23:58:14.262Z,97799.21
